sensor_id;sensor_type;location;lat;lon;timestamp;pressure;altitude;pressure_sealevel;temperature;humidity
14689;BME280;7432;48.728;9.154;2023-02-21T00:02:35;97070.25;;;4.22;77.93
14689;BME280;7432;48.728;9.154;2023-02-21T00:05:19;97061.91;;;4.19;77.78
14689;BME280;7432;48.728;9.154;2023-02-21T00:08:03;97071.84;;;4.11;78.02
14689;BME280;7432;48.728;9.154;2023-02-21T00:10:47;97065.91;;;4.11;78.04
14689;BME280;7432;48.728;9.154;2023-02-21T00:13:34;97063.50;;;4.09;77.21
14689;BME280;7432;48.728;9.154;2023-02-21T00:16:20;97056.34;;;4.02;77.91
14689;BME280;7432;48.728;9.154;2023-02-21T00:19:04;97060.13;;;3.96;78.27
14689;BME280;7432;48.728;9.154;2023-02-21T00:21:48;97053.81;;;4.02;78.99
14689;BME280;7432;48.728;9.154;2023-02-21T00:24:32;97056.47;;;4.00;79.09
14689;BME280;7432;48.728;9.154;2023-02-21T00:27:16;97056.59;;;3.99;78.79
14689;BME280;7432;48.728;9.154;2023-02-21T00:30:00;97054.13;;;3.97;79.69
14689;BME280;7432;48.728;9.154;2023-02-21T00:32:45;97047.19;;;3.99;78.85
14689;BME280;7432;48.728;9.154;2023-02-21T00:35:29;97048.13;;;3.98;78.95
14689;BME280;7432;48.728;9.154;2023-02-21T00:38:13;97047.41;;;3.96;79.03
14689;BME280;7432;48.728;9.154;2023-02-21T00:40:57;97038.16;;;3.95;79.65
14689;BME280;7432;48.728;9.154;2023-02-21T00:43:42;97045.38;;;3.89;80.14
14689;BME280;7432;48.728;9.154;2023-02-21T00:46:26;97044.28;;;3.93;80.10
14689;BME280;7432;48.728;9.154;2023-02-21T00:49:11;97044.66;;;3.99;79.80
14689;BME280;7432;48.728;9.154;2023-02-21T00:51:55;97044.28;;;3.93;79.34
14689;BME280;7432;48.728;9.154;2023-02-21T00:54:39;97045.66;;;3.97;79.21
14689;BME280;7432;48.728;9.154;2023-02-21T00:57:24;97044.91;;;3.84;80.06
14689;BME280;7432;48.728;9.154;2023-02-21T01:00:13;97040.50;;;3.86;79.62
14689;BME280;7432;48.728;9.154;2023-02-21T01:02:57;97037.47;;;3.81;79.77
14689;BME280;7432;48.728;9.154;2023-02-21T01:05:43;97029.19;;;3.77;79.89
14689;BME280;7432;48.728;9.154;2023-02-21T01:08:26;97022.28;;;3.79;79.80
14689;BME280;7432;48.728;9.154;2023-02-21T01:11:13;97027.38;;;3.79;79.88
14689;BME280;7432;48.728;9.154;2023-02-21T01:13:57;97031.53;;;3.80;79.96
14689;BME280;7432;48.728;9.154;2023-02-21T01:16:41;97030.84;;;3.78;81.05
14689;BME280;7432;48.728;9.154;2023-02-21T01:19:25;97030.34;;;3.73;80.66
14689;BME280;7432;48.728;9.154;2023-02-21T01:22:11;97035.25;;;3.76;81.29
14689;BME280;7432;48.728;9.154;2023-02-21T01:24:55;97031.53;;;3.80;80.72
14689;BME280;7432;48.728;9.154;2023-02-21T01:27:39;97030.03;;;3.78;81.20
14689;BME280;7432;48.728;9.154;2023-02-21T01:30:22;97030.50;;;3.83;80.54
14689;BME280;7432;48.728;9.154;2023-02-21T01:33:06;97027.28;;;3.81;80.21
14689;BME280;7432;48.728;9.154;2023-02-21T01:35:50;97032.38;;;3.81;80.24
14689;BME280;7432;48.728;9.154;2023-02-21T01:38:36;97029.31;;;3.76;80.63
14689;BME280;7432;48.728;9.154;2023-02-21T01:41:20;97021.81;;;3.74;80.97
14689;BME280;7432;48.728;9.154;2023-02-21T01:44:06;96997.97;;;3.63;80.70
14689;BME280;7432;48.728;9.154;2023-02-21T01:46:50;96998.41;;;3.56;81.42
14689;BME280;7432;48.728;9.154;2023-02-21T01:49:37;97010.88;;;3.72;81.90
14689;BME280;7432;48.728;9.154;2023-02-21T01:52:22;97011.50;;;3.76;81.81
14689;BME280;7432;48.728;9.154;2023-02-21T01:55:09;97018.94;;;3.79;80.93
14689;BME280;7432;48.728;9.154;2023-02-21T01:57:55;97009.56;;;3.79;81.87
14689;BME280;7432;48.728;9.154;2023-02-21T02:00:38;97005.38;;;3.78;81.25
14689;BME280;7432;48.728;9.154;2023-02-21T02:03:23;97000.59;;;3.74;80.68
14689;BME280;7432;48.728;9.154;2023-02-21T02:06:09;97010.59;;;3.77;80.78
14689;BME280;7432;48.728;9.154;2023-02-21T02:08:54;97004.69;;;3.76;81.08
14689;BME280;7432;48.728;9.154;2023-02-21T02:12:10;96998.75;;;3.76;80.72
14689;BME280;7432;48.728;9.154;2023-02-21T02:15:03;97002.22;;;3.75;81.20
14689;BME280;7432;48.728;9.154;2023-02-21T02:17:42;96992.25;;;3.72;81.31
14689;BME280;7432;48.728;9.154;2023-02-21T02:20:41;96993.25;;;3.69;81.20
14689;BME280;7432;48.728;9.154;2023-02-21T02:23:48;96995.81;;;3.69;81.57
14689;BME280;7432;48.728;9.154;2023-02-21T02:26:42;96996.84;;;3.67;81.35
14689;BME280;7432;48.728;9.154;2023-02-21T02:29:32;96988.50;;;3.65;81.52
14689;BME280;7432;48.728;9.154;2023-02-21T02:32:23;96989.41;;;3.64;81.55
14689;BME280;7432;48.728;9.154;2023-02-21T02:34:59;96988.00;;;3.59;81.54
14689;BME280;7432;48.728;9.154;2023-02-21T02:37:34;96981.06;;;3.62;81.06
14689;BME280;7432;48.728;9.154;2023-02-21T02:40:08;96985.94;;;3.65;81.58
14689;BME280;7432;48.728;9.154;2023-02-21T02:42:45;96978.94;;;3.68;81.82
14689;BME280;7432;48.728;9.154;2023-02-21T02:45:17;96979.00;;;3.67;81.31
14689;BME280;7432;48.728;9.154;2023-02-21T02:47:52;96972.41;;;3.64;82.18
14689;BME280;7432;48.728;9.154;2023-02-21T02:50:22;96968.13;;;3.65;81.84
14689;BME280;7432;48.728;9.154;2023-02-21T02:52:50;96967.63;;;3.59;81.84
14689;BME280;7432;48.728;9.154;2023-02-21T02:55:25;96964.19;;;3.61;82.05
14689;BME280;7432;48.728;9.154;2023-02-21T02:57:56;96963.94;;;3.64;81.65
14689;BME280;7432;48.728;9.154;2023-02-21T03:00:22;96968.94;;;3.65;82.10
14689;BME280;7432;48.728;9.154;2023-02-21T03:03:01;96963.84;;;3.65;81.97
14689;BME280;7432;48.728;9.154;2023-02-21T03:05:48;96968.53;;;3.58;82.40
14689;BME280;7432;48.728;9.154;2023-02-21T03:08:26;96968.47;;;3.60;81.83
14689;BME280;7432;48.728;9.154;2023-02-21T03:11:00;96971.69;;;3.62;82.13
14689;BME280;7432;48.728;9.154;2023-02-21T03:13:34;96970.19;;;3.59;82.54
14689;BME280;7432;48.728;9.154;2023-02-21T03:16:08;96963.25;;;3.62;82.90
14689;BME280;7432;48.728;9.154;2023-02-21T03:18:40;96973.13;;;3.66;82.85
14689;BME280;7432;48.728;9.154;2023-02-21T03:21:12;96969.75;;;3.66;82.74
14689;BME280;7432;48.728;9.154;2023-02-21T03:23:41;96972.41;;;3.64;82.50
14689;BME280;7432;48.728;9.154;2023-02-21T03:26:11;96971.00;;;3.60;83.21
14689;BME280;7432;48.728;9.154;2023-02-21T03:28:39;96966.50;;;3.64;81.84
14689;BME280;7432;48.728;9.154;2023-02-21T03:31:08;96957.53;;;3.58;82.77
14689;BME280;7432;48.728;9.154;2023-02-21T03:33:36;96962.63;;;3.58;82.73
14689;BME280;7432;48.728;9.154;2023-02-21T03:36:04;96968.53;;;3.58;82.63
14689;BME280;7432;48.728;9.154;2023-02-21T03:38:33;96972.03;;;3.57;82.34
14689;BME280;7432;48.728;9.154;2023-02-21T03:40:59;96959.38;;;3.56;83.41
14689;BME280;7432;48.728;9.154;2023-02-21T03:43:26;96951.66;;;3.57;82.97
14689;BME280;7432;48.728;9.154;2023-02-21T03:45:52;96953.38;;;3.57;83.44
14689;BME280;7432;48.728;9.154;2023-02-21T03:48:19;96955.94;;;3.57;82.90
14689;BME280;7432;48.728;9.154;2023-02-21T03:50:45;96960.91;;;3.58;83.01
14689;BME280;7432;48.728;9.154;2023-02-21T03:53:11;96956.84;;;3.56;82.50
14689;BME280;7432;48.728;9.154;2023-02-21T03:55:39;96936.31;;;3.46;82.08
14689;BME280;7432;48.728;9.154;2023-02-21T03:58:05;96959.09;;;3.48;82.80
14689;BME280;7432;48.728;9.154;2023-02-21T04:00:32;96957.50;;;3.47;83.08
14689;BME280;7432;48.728;9.154;2023-02-21T04:02:58;96958.91;;;3.51;82.96
14689;BME280;7432;48.728;9.154;2023-02-21T04:05:24;96966.66;;;3.49;83.19
14689;BME280;7432;48.728;9.154;2023-02-21T04:07:51;96959.59;;;3.53;82.60
14689;BME280;7432;48.728;9.154;2023-02-21T04:10:17;96963.16;;;3.50;82.42
14689;BME280;7432;48.728;9.154;2023-02-21T04:12:45;96962.47;;;3.48;83.04
14689;BME280;7432;48.728;9.154;2023-02-21T04:15:11;96961.84;;;3.45;83.46
14689;BME280;7432;48.728;9.154;2023-02-21T04:17:38;96960.75;;;3.49;82.05
14689;BME280;7432;48.728;9.154;2023-02-21T04:20:05;96955.75;;;3.47;82.19
14689;BME280;7432;48.728;9.154;2023-02-21T04:22:31;96957.78;;;3.42;82.40
14689;BME280;7432;48.728;9.154;2023-02-21T04:24:58;96961.28;;;3.41;83.19
14689;BME280;7432;48.728;9.154;2023-02-21T04:27:24;96959.50;;;3.42;82.35
14689;BME280;7432;48.728;9.154;2023-02-21T04:29:52;96954.53;;;3.40;82.46
14689;BME280;7432;48.728;9.154;2023-02-21T04:32:19;96956.47;;;3.37;81.90
14689;BME280;7432;48.728;9.154;2023-02-21T04:34:45;96960.25;;;3.31;82.41
14689;BME280;7432;48.728;9.154;2023-02-21T04:37:11;96961.56;;;3.37;81.94
14689;BME280;7432;48.728;9.154;2023-02-21T04:39:39;96964.63;;;3.29;81.92
14689;BME280;7432;48.728;9.154;2023-02-21T04:42:05;96963.72;;;3.30;82.58
14689;BME280;7432;48.728;9.154;2023-02-21T04:44:33;96961.97;;;3.31;83.04
14689;BME280;7432;48.728;9.154;2023-02-21T04:47:01;96964.09;;;3.37;81.89
14689;BME280;7432;48.728;9.154;2023-02-21T04:49:27;96955.66;;;3.36;82.42
14689;BME280;7432;48.728;9.154;2023-02-21T04:51:54;96964.44;;;3.32;82.03
14689;BME280;7432;48.728;9.154;2023-02-21T04:54:20;96958.03;;;3.27;82.91
14689;BME280;7432;48.728;9.154;2023-02-21T04:56:47;96955.16;;;3.31;82.75
14689;BME280;7432;48.728;9.154;2023-02-21T04:59:13;96955.16;;;3.31;83.02
14689;BME280;7432;48.728;9.154;2023-02-21T05:01:39;96961.59;;;3.24;83.28
14689;BME280;7432;48.728;9.154;2023-02-21T05:04:07;96962.50;;;3.23;82.88
14689;BME280;7432;48.728;9.154;2023-02-21T05:06:34;96960.28;;;3.19;82.87
14689;BME280;7432;48.728;9.154;2023-02-21T05:09:00;96953.66;;;3.16;83.28
14689;BME280;7432;48.728;9.154;2023-02-21T05:11:27;96945.34;;;3.14;83.04
14689;BME280;7432;48.728;9.154;2023-02-21T05:13:53;96910.31;;;2.92;82.73
14689;BME280;7432;48.728;9.154;2023-02-21T05:16:20;96949.59;;;3.14;83.02
14689;BME280;7432;48.728;9.154;2023-02-21T05:18:47;96939.44;;;3.14;83.29
14689;BME280;7432;48.728;9.154;2023-02-21T05:21:17;96945.09;;;3.17;83.29
14689;BME280;7432;48.728;9.154;2023-02-21T05:23:44;96942.06;;;3.12;83.00
14689;BME280;7432;48.728;9.154;2023-02-21T05:26:21;96944.59;;;3.12;83.07
14689;BME280;7432;48.728;9.154;2023-02-21T05:28:47;96953.06;;;3.13;83.80
14689;BME280;7432;48.728;9.154;2023-02-21T05:31:14;96946.25;;;3.13;83.22
14689;BME280;7432;48.728;9.154;2023-02-21T05:33:40;96944.59;;;3.12;83.35
14689;BME280;7432;48.728;9.154;2023-02-21T05:36:07;96946.31;;;3.12;82.76
14689;BME280;7432;48.728;9.154;2023-02-21T05:38:43;96940.94;;;3.16;83.16
14689;BME280;7432;48.728;9.154;2023-02-21T05:41:10;96940.31;;;3.13;83.42
14689;BME280;7432;48.728;9.154;2023-02-21T05:43:36;96953.47;;;3.07;83.08
14689;BME280;7432;48.728;9.154;2023-02-21T05:46:03;96951.66;;;3.09;82.79
14689;BME280;7432;48.728;9.154;2023-02-21T05:48:29;96949.88;;;3.09;83.88
14689;BME280;7432;48.728;9.154;2023-02-21T05:50:55;96943.19;;;2.95;82.87
14689;BME280;7432;48.728;9.154;2023-02-21T05:53:22;96958.75;;;3.04;83.14
14689;BME280;7432;48.728;9.154;2023-02-21T05:55:49;96956.53;;;2.99;83.88
14689;BME280;7432;48.728;9.154;2023-02-21T05:58:16;96966.28;;;2.92;83.33
14689;BME280;7432;48.728;9.154;2023-02-21T06:00:42;96963.84;;;2.91;82.90
14689;BME280;7432;48.728;9.154;2023-02-21T06:03:08;96957.84;;;2.92;83.96
14689;BME280;7432;48.728;9.154;2023-02-21T06:05:35;96956.09;;;2.92;84.08
14689;BME280;7432;48.728;9.154;2023-02-21T06:08:01;96961.91;;;2.94;83.01
14689;BME280;7432;48.728;9.154;2023-02-21T06:10:27;96957.75;;;2.93;82.96
14689;BME280;7432;48.728;9.154;2023-02-21T06:12:55;96954.38;;;2.93;82.86
14689;BME280;7432;48.728;9.154;2023-02-21T06:15:21;96954.28;;;2.94;83.91
14689;BME280;7432;48.728;9.154;2023-02-21T06:17:48;96951.84;;;2.93;83.16
14689;BME280;7432;48.728;9.154;2023-02-21T06:20:14;96955.19;;;2.93;83.41
14689;BME280;7432;48.728;9.154;2023-02-21T06:22:41;96950.81;;;2.95;83.23
14689;BME280;7432;48.728;9.154;2023-02-21T06:25:09;96951.84;;;2.93;82.54
14689;BME280;7432;48.728;9.154;2023-02-21T06:27:36;96944.72;;;2.85;83.31
14689;BME280;7432;48.728;9.154;2023-02-21T06:30:05;96944.13;;;2.94;82.98
14689;BME280;7432;48.728;9.154;2023-02-21T06:32:31;96941.47;;;2.96;82.58
14689;BME280;7432;48.728;9.154;2023-02-21T06:34:58;96939.53;;;2.99;83.42
14689;BME280;7432;48.728;9.154;2023-02-21T06:37:24;96941.13;;;3.00;82.37
14689;BME280;7432;48.728;9.154;2023-02-21T06:39:50;96938.59;;;3.00;82.57
14689;BME280;7432;48.728;9.154;2023-02-21T06:42:17;96939.41;;;3.01;83.37
14689;BME280;7432;48.728;9.154;2023-02-21T06:44:44;96945.00;;;3.06;83.08
14689;BME280;7432;48.728;9.154;2023-02-21T06:47:12;96942.25;;;3.09;82.38
14689;BME280;7432;48.728;9.154;2023-02-21T06:49:39;96950.00;;;3.08;82.06
14689;BME280;7432;48.728;9.154;2023-02-21T06:52:06;96949.88;;;3.09;82.82
14689;BME280;7432;48.728;9.154;2023-02-21T06:54:33;96952.84;;;3.16;82.71
14689;BME280;7432;48.728;9.154;2023-02-21T06:56:59;96960.28;;;3.19;82.23
14689;BME280;7432;48.728;9.154;2023-02-21T06:59:25;96948.88;;;3.24;82.97
14689;BME280;7432;48.728;9.154;2023-02-21T07:01:52;96948.47;;;3.30;82.73
14689;BME280;7432;48.728;9.154;2023-02-21T07:04:20;96959.44;;;3.31;81.83
14689;BME280;7432;48.728;9.154;2023-02-21T07:06:46;96948.34;;;3.32;82.25
14689;BME280;7432;48.728;9.154;2023-02-21T07:09:13;96951.28;;;3.38;82.79
14689;BME280;7432;48.728;9.154;2023-02-21T07:11:40;96960.66;;;3.38;81.82
14689;BME280;7432;48.728;9.154;2023-02-21T07:14:06;96962.34;;;3.50;82.78
14689;BME280;7432;48.728;9.154;2023-02-21T07:16:33;96962.63;;;3.58;81.75
14689;BME280;7432;48.728;9.154;2023-02-21T07:18:59;96952.84;;;3.65;82.41
14689;BME280;7432;48.728;9.154;2023-02-21T07:21:27;96952.00;;;3.77;82.37
14689;BME280;7432;48.728;9.154;2023-02-21T07:23:53;96949.28;;;3.91;82.51
14689;BME280;7432;48.728;9.154;2023-02-21T07:26:20;96952.00;;;4.00;81.48
14689;BME280;7432;48.728;9.154;2023-02-21T07:28:47;96963.00;;;4.25;81.50
14689;BME280;7432;48.728;9.154;2023-02-21T07:31:13;96955.72;;;4.66;81.80
14689;BME280;7432;48.728;9.154;2023-02-21T07:33:40;96952.28;;;5.89;78.77
14689;BME280;7432;48.728;9.154;2023-02-21T07:36:07;96955.19;;;7.90;72.63
14689;BME280;7432;48.728;9.154;2023-02-21T07:38:35;96958.91;;;10.56;63.22
14689;BME280;7432;48.728;9.154;2023-02-21T07:41:02;96953.84;;;13.05;54.84
14689;BME280;7432;48.728;9.154;2023-02-21T07:43:30;96958.19;;;15.20;48.89
14689;BME280;7432;48.728;9.154;2023-02-21T07:45:57;96955.16;;;17.10;44.14
14689;BME280;7432;48.728;9.154;2023-02-21T07:48:23;96968.88;;;18.35;40.46
14689;BME280;7432;48.728;9.154;2023-02-21T07:50:50;96968.34;;;18.59;40.07
14689;BME280;7432;48.728;9.154;2023-02-21T07:53:16;96958.72;;;18.66;39.41
14689;BME280;7432;48.728;9.154;2023-02-21T07:55:44;96963.34;;;18.58;39.36
14689;BME280;7432;48.728;9.154;2023-02-21T07:58:10;96967.56;;;18.65;38.93
14689;BME280;7432;48.728;9.154;2023-02-21T08:00:37;96968.97;;;18.81;38.10
14689;BME280;7432;48.728;9.154;2023-02-21T08:03:03;96966.44;;;19.91;36.85
14689;BME280;7432;48.728;9.154;2023-02-21T08:05:30;96966.84;;;21.01;35.57
14689;BME280;7432;48.728;9.154;2023-02-21T08:07:56;96975.38;;;22.19;33.51
14689;BME280;7432;48.728;9.154;2023-02-21T08:10:24;96965.69;;;24.18;30.48
14689;BME280;7432;48.728;9.154;2023-02-21T08:12:52;96973.38;;;25.98;28.32
14689;BME280;7432;48.728;9.154;2023-02-21T08:15:18;96974.38;;;27.57;26.16
14689;BME280;7432;48.728;9.154;2023-02-21T08:17:46;96985.22;;;28.69;25.37
14689;BME280;7432;48.728;9.154;2023-02-21T08:20:13;96981.81;;;29.50;24.60
14689;BME280;7432;48.728;9.154;2023-02-21T08:22:39;96990.75;;;29.99;23.19
14689;BME280;7432;48.728;9.154;2023-02-21T08:25:06;96986.66;;;30.81;22.64
14689;BME280;7432;48.728;9.154;2023-02-21T08:27:32;96979.38;;;30.91;22.74
14689;BME280;7432;48.728;9.154;2023-02-21T08:30:00;96980.88;;;31.41;22.33
14689;BME280;7432;48.728;9.154;2023-02-21T08:32:26;96985.72;;;32.15;21.76
14689;BME280;7432;48.728;9.154;2023-02-21T08:34:53;96984.31;;;32.42;21.63
14689;BME280;7432;48.728;9.154;2023-02-21T08:37:19;96987.59;;;32.76;21.07
14689;BME280;7432;48.728;9.154;2023-02-21T08:39:46;96988.66;;;33.12;20.44
14689;BME280;7432;48.728;9.154;2023-02-21T08:42:13;96989.41;;;33.31;20.62
14689;BME280;7432;48.728;9.154;2023-02-21T08:44:41;96987.63;;;33.73;19.57
14689;BME280;7432;48.728;9.154;2023-02-21T08:47:09;96991.41;;;33.99;20.12
14689;BME280;7432;48.728;9.154;2023-02-21T08:49:36;96994.19;;;34.35;19.60
14689;BME280;7432;48.728;9.154;2023-02-21T08:52:04;96999.69;;;34.66;19.26
14689;BME280;7432;48.728;9.154;2023-02-21T08:54:30;96998.13;;;34.65;19.32
14689;BME280;7432;48.728;9.154;2023-02-21T08:56:57;96993.88;;;34.50;19.40
14689;BME280;7432;48.728;9.154;2023-02-21T08:59:23;96991.31;;;34.31;19.29
14689;BME280;7432;48.728;9.154;2023-02-21T09:01:50;96989.44;;;34.59;19.08
14689;BME280;7432;48.728;9.154;2023-02-21T09:04:17;96991.16;;;34.99;18.45
14689;BME280;7432;48.728;9.154;2023-02-21T09:06:44;96995.75;;;35.21;18.57
14689;BME280;7432;48.728;9.154;2023-02-21T09:09:10;96990.41;;;34.85;19.06
14689;BME280;7432;48.728;9.154;2023-02-21T09:11:37;96985.84;;;34.50;19.16
14689;BME280;7432;48.728;9.154;2023-02-21T09:14:03;96987.16;;;33.84;19.52
14689;BME280;7432;48.728;9.154;2023-02-21T09:16:30;96984.88;;;32.39;20.01
14689;BME280;7432;48.728;9.154;2023-02-21T09:18:58;96977.06;;;29.42;22.43
14689;BME280;7432;48.728;9.154;2023-02-21T09:21:27;96970.50;;;25.27;25.81
14689;BME280;7432;48.728;9.154;2023-02-21T09:23:55;96965.72;;;22.61;28.95
14689;BME280;7432;48.728;9.154;2023-02-21T09:26:24;96954.16;;;20.42;31.93
14689;BME280;7432;48.728;9.154;2023-02-21T09:28:51;96959.75;;;18.91;34.95
14689;BME280;7432;48.728;9.154;2023-02-21T09:31:18;96964.66;;;17.80;37.14
14689;BME280;7432;48.728;9.154;2023-02-21T09:33:45;96964.63;;;16.90;39.25
14689;BME280;7432;48.728;9.154;2023-02-21T09:36:11;96954.44;;;16.32;40.24
14689;BME280;7432;48.728;9.154;2023-02-21T09:38:39;96958.66;;;15.82;41.60
14689;BME280;7432;48.728;9.154;2023-02-21T09:41:08;96949.63;;;15.34;42.38
14689;BME280;7432;48.728;9.154;2023-02-21T09:43:38;96948.88;;;15.11;43.88
14689;BME280;7432;48.728;9.154;2023-02-21T09:46:10;96944.84;;;14.94;44.19
14689;BME280;7432;48.728;9.154;2023-02-21T09:48:39;96945.84;;;14.70;45.12
14689;BME280;7432;48.728;9.154;2023-02-21T09:51:07;96943.63;;;14.45;45.68
14689;BME280;7432;48.728;9.154;2023-02-21T09:53:37;96943.84;;;14.27;46.94
14689;BME280;7432;48.728;9.154;2023-02-21T09:56:10;96941.69;;;14.08;47.06
14689;BME280;7432;48.728;9.154;2023-02-21T09:58:38;96940.16;;;13.99;47.22
14689;BME280;7432;48.728;9.154;2023-02-21T10:01:13;96931.63;;;13.90;47.38
14689;BME280;7432;48.728;9.154;2023-02-21T10:03:49;96943.31;;;13.78;48.04
14689;BME280;7432;48.728;9.154;2023-02-21T10:06:27;96940.47;;;13.65;48.61
14689;BME280;7432;48.728;9.154;2023-02-21T10:08:59;96934.78;;;13.70;48.25
14689;BME280;7432;48.728;9.154;2023-02-21T10:11:39;96940.59;;;13.63;49.14
14689;BME280;7432;48.728;9.154;2023-02-21T10:14:18;96935.56;;;13.70;49.00
14689;BME280;7432;48.728;9.154;2023-02-21T10:16:52;96941.13;;;13.59;48.87
14689;BME280;7432;48.728;9.154;2023-02-21T10:19:25;96934.28;;;13.74;48.75
14689;BME280;7432;48.728;9.154;2023-02-21T10:21:56;96937.88;;;13.65;48.63
14689;BME280;7432;48.728;9.154;2023-02-21T10:24:24;96930.91;;;13.65;48.47
14689;BME280;7432;48.728;9.154;2023-02-21T10:26:58;96928.66;;;13.62;48.13
14689;BME280;7432;48.728;9.154;2023-02-21T10:29:36;96933.03;;;13.62;49.38
14689;BME280;7432;48.728;9.154;2023-02-21T10:32:04;96922.50;;;13.63;48.84
14689;BME280;7432;48.728;9.154;2023-02-21T10:34:32;96921.34;;;13.66;48.24
14689;BME280;7432;48.728;9.154;2023-02-21T10:37:03;96934.00;;;13.61;48.96
14689;BME280;7432;48.728;9.154;2023-02-21T10:39:35;96923.94;;;13.66;49.08
14689;BME280;7432;48.728;9.154;2023-02-21T10:42:08;96927.03;;;13.61;48.13
14689;BME280;7432;48.728;9.154;2023-02-21T10:44:38;96924.47;;;13.53;49.27
14689;BME280;7432;48.728;9.154;2023-02-21T10:47:10;96928.22;;;13.51;48.90
14689;BME280;7432;48.728;9.154;2023-02-21T10:49:46;96926.56;;;13.58;48.28
14689;BME280;7432;48.728;9.154;2023-02-21T10:52:16;96919.31;;;13.53;49.26
14689;BME280;7432;48.728;9.154;2023-02-21T10:54:59;96922.53;;;13.55;49.62
14689;BME280;7432;48.728;9.154;2023-02-21T10:57:27;96914.13;;;13.53;48.85
14689;BME280;7432;48.728;9.154;2023-02-21T10:59:56;96913.16;;;13.54;49.41
14689;BME280;7432;48.728;9.154;2023-02-21T11:02:30;96911.00;;;13.66;49.63
14689;BME280;7432;48.728;9.154;2023-02-21T11:05:11;96899.16;;;13.72;49.45
14689;BME280;7432;48.728;9.154;2023-02-21T11:07:38;96896.28;;;13.66;50.95
14689;BME280;7432;48.728;9.154;2023-02-21T11:10:28;96891.06;;;13.75;49.25
14689;BME280;7432;48.728;9.154;2023-02-21T11:13:06;96892.81;;;13.82;48.67
14689;BME280;7432;48.728;9.154;2023-02-21T11:15:33;96884.09;;;13.75;49.12
14689;BME280;7432;48.728;9.154;2023-02-21T11:18:05;96888.94;;;13.78;49.31
14689;BME280;7432;48.728;9.154;2023-02-21T11:20:36;96882.66;;;13.73;49.33
14689;BME280;7432;48.728;9.154;2023-02-21T11:23:03;96886.84;;;13.82;48.39
14689;BME280;7432;48.728;9.154;2023-02-21T11:25:37;96873.56;;;13.85;49.53
14689;BME280;7432;48.728;9.154;2023-02-21T11:28:17;96876.44;;;13.90;50.14
14689;BME280;7432;48.728;9.154;2023-02-21T11:30:48;96871.94;;;13.84;49.53
14689;BME280;7432;48.728;9.154;2023-02-21T11:33:19;96866.13;;;13.82;49.45
14689;BME280;7432;48.728;9.154;2023-02-21T11:35:47;96860.22;;;13.65;51.82
14689;BME280;7432;48.728;9.154;2023-02-21T11:38:33;96861.00;;;13.74;51.95
14689;BME280;7432;48.728;9.154;2023-02-21T11:41:01;96857.94;;;13.70;50.81
14689;BME280;7432;48.728;9.154;2023-02-21T11:43:29;96855.16;;;13.72;50.78
14689;BME280;7432;48.728;9.154;2023-02-21T11:46:03;96850.47;;;13.75;50.77
14689;BME280;7432;48.728;9.154;2023-02-21T11:48:32;96855.53;;;13.69;50.99
14689;BME280;7432;48.728;9.154;2023-02-21T11:51:04;96833.25;;;13.59;50.71
14689;BME280;7432;48.728;9.154;2023-02-21T11:53:36;96843.84;;;13.73;51.34
14689;BME280;7432;48.728;9.154;2023-02-21T11:56:13;96832.97;;;13.77;50.18
14689;BME280;7432;48.728;9.154;2023-02-21T11:58:49;96835.56;;;13.77;49.77
14689;BME280;7432;48.728;9.154;2023-02-21T12:01:23;96832.28;;;13.83;50.44
14689;BME280;7432;48.728;9.154;2023-02-21T12:04:07;96823.59;;;13.76;51.00
14689;BME280;7432;48.728;9.154;2023-02-21T12:06:44;96821.31;;;13.81;50.41
14689;BME280;7432;48.728;9.154;2023-02-21T12:09:17;96818.25;;;13.78;48.75
14689;BME280;7432;48.728;9.154;2023-02-21T12:11:57;96813.75;;;13.72;49.32
14689;BME280;7432;48.728;9.154;2023-02-21T12:14:45;96799.50;;;13.76;50.20
14689;BME280;7432;48.728;9.154;2023-02-21T12:17:41;96801.06;;;13.85;48.50
14689;BME280;7432;48.728;9.154;2023-02-21T12:20:30;96793.78;;;13.80;49.22
14689;BME280;7432;48.728;9.154;2023-02-21T12:23:10;96783.63;;;13.79;49.71
14689;BME280;7432;48.728;9.154;2023-02-21T12:25:51;96782.28;;;13.83;51.65
14689;BME280;7432;48.728;9.154;2023-02-21T12:28:27;96785.63;;;13.91;50.51
14689;BME280;7432;48.728;9.154;2023-02-21T12:31:10;96779.47;;;13.92;48.73
14689;BME280;7432;48.728;9.154;2023-02-21T12:33:43;96774.13;;;13.94;49.50
14689;BME280;7432;48.728;9.154;2023-02-21T12:36:26;96772.00;;;13.97;48.66
14689;BME280;7432;48.728;9.154;2023-02-21T12:39:02;96762.44;;;13.98;48.74
14689;BME280;7432;48.728;9.154;2023-02-21T12:41:49;96760.94;;;14.03;48.31
14689;BME280;7432;48.728;9.154;2023-02-21T12:44:21;96760.94;;;14.03;47.89
14689;BME280;7432;48.728;9.154;2023-02-21T12:46:51;96760.34;;;14.16;47.96
14689;BME280;7432;48.728;9.154;2023-02-21T12:49:24;96751.75;;;14.15;48.93
14689;BME280;7432;48.728;9.154;2023-02-21T12:51:56;96753.03;;;14.19;47.01
14689;BME280;7432;48.728;9.154;2023-02-21T12:54:37;96748.31;;;14.23;46.95
14689;BME280;7432;48.728;9.154;2023-02-21T12:57:10;96728.66;;;14.29;46.81
14689;BME280;7432;48.728;9.154;2023-02-21T12:59:47;96732.59;;;14.24;47.87
14689;BME280;7432;48.728;9.154;2023-02-21T13:02:22;96722.91;;;14.18;48.52
14689;BME280;7432;48.728;9.154;2023-02-21T13:04:53;96721.94;;;14.19;47.05
14689;BME280;7432;48.728;9.154;2023-02-21T13:07:23;96708.72;;;14.29;46.15
14689;BME280;7432;48.728;9.154;2023-02-21T13:09:55;96710.06;;;14.25;48.24
14689;BME280;7432;48.728;9.154;2023-02-21T13:12:27;96704.53;;;14.28;47.56
14689;BME280;7432;48.728;9.154;2023-02-21T13:14:59;96706.78;;;14.31;47.64
14689;BME280;7432;48.728;9.154;2023-02-21T13:17:29;96694.19;;;14.43;46.63
14689;BME280;7432;48.728;9.154;2023-02-21T13:20:01;96692.78;;;14.40;47.19
14689;BME280;7432;48.728;9.154;2023-02-21T13:25:20;96688.13;;;14.36;45.16
14689;BME280;7432;48.728;9.154;2023-02-21T13:27:55;96678.94;;;14.33;46.69
14689;BME280;7432;48.728;9.154;2023-02-21T13:30:26;96682.75;;;14.37;46.45
14689;BME280;7432;48.728;9.154;2023-02-21T13:32:56;96673.47;;;14.43;45.91
14689;BME280;7432;48.728;9.154;2023-02-21T13:35:30;96672.03;;;14.40;46.50
14689;BME280;7432;48.728;9.154;2023-02-21T13:37:58;96665.44;;;14.38;47.06
14689;BME280;7432;48.728;9.154;2023-02-21T13:40:33;96665.88;;;14.56;44.97
14689;BME280;7432;48.728;9.154;2023-02-21T13:43:04;96664.16;;;14.63;45.80
14689;BME280;7432;48.728;9.154;2023-02-21T13:45:32;96650.66;;;14.67;45.34
14689;BME280;7432;48.728;9.154;2023-02-21T13:48:30;96655.84;;;14.67;44.17
14689;BME280;7432;48.728;9.154;2023-02-21T13:50:58;96649.06;;;14.66;44.72